sensor_id;sensor_type;location;lat;lon;timestamp;temperature;humidity
51579;DHT22;47998;53.242;6.386;2022-10-24T00:00:08;13.60;99.90
51579;DHT22;47998;53.242;6.386;2022-10-24T00:02:34;13.60;99.90
51579;DHT22;47998;53.242;6.386;2022-10-24T00:05:00;13.60;99.90
51579;DHT22;47998;53.242;6.386;2022-10-24T00:07:26;13.60;99.90
51579;DHT22;47998;53.242;6.386;2022-10-24T00:09:52;13.60;99.90
51579;DHT22;47998;53.242;6.386;2022-10-24T00:12:18;13.60;99.90
51579;DHT22;47998;53.242;6.386;2022-10-24T00:14:45;13.70;99.90
51579;DHT22;47998;53.242;6.386;2022-10-24T00:17:10;13.70;99.90
51579;DHT22;47998;53.242;6.386;2022-10-24T00:19:36;13.70;99.90
51579;DHT22;47998;53.242;6.386;2022-10-24T00:22:02;13.70;99.90
51579;DHT22;47998;53.242;6.386;2022-10-24T00:24:27;13.70;99.90
51579;DHT22;47998;53.242;6.386;2022-10-24T00:26:53;13.70;99.90
51579;DHT22;47998;53.242;6.386;2022-10-24T00:29:19;13.60;99.90
51579;DHT22;47998;53.242;6.386;2022-10-24T00:31:45;13.60;99.90
51579;DHT22;47998;53.242;6.386;2022-10-24T00:34:11;13.50;99.90
51579;DHT22;47998;53.242;6.386;2022-10-24T00:36:37;13.50;99.90
51579;DHT22;47998;53.242;6.386;2022-10-24T00:39:03;13.50;99.90
51579;DHT22;47998;53.242;6.386;2022-10-24T00:41:33;13.40;99.90
51579;DHT22;47998;53.242;6.386;2022-10-24T00:47:06;13.50;99.90
51579;DHT22;47998;53.242;6.386;2022-10-24T00:49:52;13.50;99.90
51579;DHT22;47998;53.242;6.386;2022-10-24T00:52:24;13.50;99.90
51579;DHT22;47998;53.242;6.386;2022-10-24T00:54:51;13.60;99.90
51579;DHT22;47998;53.242;6.386;2022-10-24T00:57:30;13.60;99.90
51579;DHT22;47998;53.242;6.386;2022-10-24T01:00:11;13.70;99.90
51579;DHT22;47998;53.242;6.386;2022-10-24T01:02:38;13.70;99.90
51579;DHT22;47998;53.242;6.386;2022-10-24T01:05:05;13.70;99.90
51579;DHT22;47998;53.242;6.386;2022-10-24T01:15:58;13.40;99.90
51579;DHT22;47998;53.242;6.386;2022-10-24T01:18:49;13.30;99.90
51579;DHT22;47998;53.242;6.386;2022-10-24T01:21:40;13.30;99.90
51579;DHT22;47998;53.242;6.386;2022-10-24T01:30:01;13.10;99.90
51579;DHT22;47998;53.242;6.386;2022-10-24T01:33:00;13.10;99.90
51579;DHT22;47998;53.242;6.386;2022-10-24T01:38:16;13.20;99.90
51579;DHT22;47998;53.242;6.386;2022-10-24T01:43:12;13.40;99.90
51579;DHT22;47998;53.242;6.386;2022-10-24T01:45:42;13.50;99.90
51579;DHT22;47998;53.242;6.386;2022-10-24T01:48:13;13.60;99.90
51579;DHT22;47998;53.242;6.386;2022-10-24T01:50:42;13.70;99.90
51579;DHT22;47998;53.242;6.386;2022-10-24T01:53:11;13.90;99.90
51579;DHT22;47998;53.242;6.386;2022-10-24T01:55:38;13.90;99.90
51579;DHT22;47998;53.242;6.386;2022-10-24T01:58:06;14.00;99.90
51579;DHT22;47998;53.242;6.386;2022-10-24T02:00:32;14.00;99.90
51579;DHT22;47998;53.242;6.386;2022-10-24T02:03:00;14.10;99.90
51579;DHT22;47998;53.242;6.386;2022-10-24T02:05:35;14.10;99.90
51579;DHT22;47998;53.242;6.386;2022-10-24T02:08:06;14.20;99.90
51579;DHT22;47998;53.242;6.386;2022-10-24T02:10:37;14.20;99.90
51579;DHT22;47998;53.242;6.386;2022-10-24T02:13:22;14.20;99.90
51579;DHT22;47998;53.242;6.386;2022-10-24T02:15:51;14.10;99.90
51579;DHT22;47998;53.242;6.386;2022-10-24T02:18:20;14.20;99.90
51579;DHT22;47998;53.242;6.386;2022-10-24T02:21:29;14.20;99.90
51579;DHT22;47998;53.242;6.386;2022-10-24T02:26:50;14.20;99.90
51579;DHT22;47998;53.242;6.386;2022-10-24T02:29:25;14.20;99.90
51579;DHT22;47998;53.242;6.386;2022-10-24T02:31:56;14.20;99.90
51579;DHT22;47998;53.242;6.386;2022-10-24T02:34:24;14.30;99.90
51579;DHT22;47998;53.242;6.386;2022-10-24T02:36:54;14.40;99.90
51579;DHT22;47998;53.242;6.386;2022-10-24T02:39:21;14.40;99.90
51579;DHT22;47998;53.242;6.386;2022-10-24T02:41:49;14.40;99.90
51579;DHT22;47998;53.242;6.386;2022-10-24T02:44:17;14.40;99.90
51579;DHT22;47998;53.242;6.386;2022-10-24T02:46:45;14.40;99.90
51579;DHT22;47998;53.242;6.386;2022-10-24T02:49:12;14.40;99.90
51579;DHT22;47998;53.242;6.386;2022-10-24T02:51:40;14.40;99.90
51579;DHT22;47998;53.242;6.386;2022-10-24T02:54:07;14.40;99.90
51579;DHT22;47998;53.242;6.386;2022-10-24T02:56:34;14.40;99.90
51579;DHT22;47998;53.242;6.386;2022-10-24T02:59:01;14.40;99.90
51579;DHT22;47998;53.242;6.386;2022-10-24T03:01:27;14.40;99.90
51579;DHT22;47998;53.242;6.386;2022-10-24T03:03:53;14.30;99.90
51579;DHT22;47998;53.242;6.386;2022-10-24T03:06:18;14.30;99.90
51579;DHT22;47998;53.242;6.386;2022-10-24T03:08:44;14.30;99.90
51579;DHT22;47998;53.242;6.386;2022-10-24T03:11:10;14.40;99.90
51579;DHT22;47998;53.242;6.386;2022-10-24T03:13:36;14.40;99.90
51579;DHT22;47998;53.242;6.386;2022-10-24T03:16:01;14.50;99.90
51579;DHT22;47998;53.242;6.386;2022-10-24T03:18:29;14.60;99.90
51579;DHT22;47998;53.242;6.386;2022-10-24T03:20:55;14.80;99.90
51579;DHT22;47998;53.242;6.386;2022-10-24T03:23:20;14.80;99.90
51579;DHT22;47998;53.242;6.386;2022-10-24T03:25:47;14.70;99.90
51579;DHT22;47998;53.242;6.386;2022-10-24T03:28:12;14.80;99.90
51579;DHT22;47998;53.242;6.386;2022-10-24T03:30:38;14.90;99.90
51579;DHT22;47998;53.242;6.386;2022-10-24T03:33:04;14.90;99.90
51579;DHT22;47998;53.242;6.386;2022-10-24T03:35:30;14.90;99.90
51579;DHT22;47998;53.242;6.386;2022-10-24T03:37:55;14.80;99.90
51579;DHT22;47998;53.242;6.386;2022-10-24T03:40:21;14.80;99.90
51579;DHT22;47998;53.242;6.386;2022-10-24T03:42:47;14.70;99.90
51579;DHT22;47998;53.242;6.386;2022-10-24T03:45:12;14.70;99.90
51579;DHT22;47998;53.242;6.386;2022-10-24T03:47:38;14.70;99.90
51579;DHT22;47998;53.242;6.386;2022-10-24T03:50:05;14.70;99.90
51579;DHT22;47998;53.242;6.386;2022-10-24T03:52:31;14.60;99.90
51579;DHT22;47998;53.242;6.386;2022-10-24T03:54:56;14.70;99.90
51579;DHT22;47998;53.242;6.386;2022-10-24T03:57:22;14.70;99.90
51579;DHT22;47998;53.242;6.386;2022-10-24T03:59:48;14.80;99.90
51579;DHT22;47998;53.242;6.386;2022-10-24T04:02:13;14.90;99.90
51579;DHT22;47998;53.242;6.386;2022-10-24T04:04:39;15.00;99.90
51579;DHT22;47998;53.242;6.386;2022-10-24T04:07:06;15.00;99.90
51579;DHT22;47998;53.242;6.386;2022-10-24T04:09:32;15.00;99.90
51579;DHT22;47998;53.242;6.386;2022-10-24T04:11:58;15.10;99.90
51579;DHT22;47998;53.242;6.386;2022-10-24T04:14:23;15.10;99.90
51579;DHT22;47998;53.242;6.386;2022-10-24T04:16:49;15.10;99.90
51579;DHT22;47998;53.242;6.386;2022-10-24T04:19:15;15.10;99.90
51579;DHT22;47998;53.242;6.386;2022-10-24T04:21:46;15.00;99.90
51579;DHT22;47998;53.242;6.386;2022-10-24T04:24:12;14.90;99.90
51579;DHT22;47998;53.242;6.386;2022-10-24T04:26:38;14.80;99.90
51579;DHT22;47998;53.242;6.386;2022-10-24T04:29:06;14.60;99.90
51579;DHT22;47998;53.242;6.386;2022-10-24T04:31:32;14.60;99.90
51579;DHT22;47998;53.242;6.386;2022-10-24T04:33:58;14.50;99.90
51579;DHT22;47998;53.242;6.386;2022-10-24T04:36:23;14.40;99.90
51579;DHT22;47998;53.242;6.386;2022-10-24T04:38:49;14.30;99.90
51579;DHT22;47998;53.242;6.386;2022-10-24T04:41:15;14.30;99.90
51579;DHT22;47998;53.242;6.386;2022-10-24T04:43:40;14.20;99.90
51579;DHT22;47998;53.242;6.386;2022-10-24T04:46:06;14.20;99.90
51579;DHT22;47998;53.242;6.386;2022-10-24T04:48:33;14.30;99.90
51579;DHT22;47998;53.242;6.386;2022-10-24T04:50:58;14.20;99.90
51579;DHT22;47998;53.242;6.386;2022-10-24T04:53:24;14.20;99.90
51579;DHT22;47998;53.242;6.386;2022-10-24T04:55:50;14.20;99.90
51579;DHT22;47998;53.242;6.386;2022-10-24T04:58:16;14.20;99.90
51579;DHT22;47998;53.242;6.386;2022-10-24T05:00:41;14.20;99.90
51579;DHT22;47998;53.242;6.386;2022-10-24T05:03:11;14.20;99.90
51579;DHT22;47998;53.242;6.386;2022-10-24T05:05:37;14.20;99.90
51579;DHT22;47998;53.242;6.386;2022-10-24T05:08:03;14.20;99.90
51579;DHT22;47998;53.242;6.386;2022-10-24T05:10:29;14.20;99.90
51579;DHT22;47998;53.242;6.386;2022-10-24T05:12:55;14.30;99.90
51579;DHT22;47998;53.242;6.386;2022-10-24T05:15:20;14.30;99.90
51579;DHT22;47998;53.242;6.386;2022-10-24T05:17:46;14.30;99.90
51579;DHT22;47998;53.242;6.386;2022-10-24T05:20:12;14.40;99.90
51579;DHT22;47998;53.242;6.386;2022-10-24T05:22:39;14.40;99.90
51579;DHT22;47998;53.242;6.386;2022-10-24T05:25:05;14.40;99.90
51579;DHT22;47998;53.242;6.386;2022-10-24T05:27:30;14.30;99.90
51579;DHT22;47998;53.242;6.386;2022-10-24T05:29:56;14.30;99.90
51579;DHT22;47998;53.242;6.386;2022-10-24T05:32:23;14.40;99.90
51579;DHT22;47998;53.242;6.386;2022-10-24T05:34:49;14.30;99.90
51579;DHT22;47998;53.242;6.386;2022-10-24T05:37:16;14.30;99.90
51579;DHT22;47998;53.242;6.386;2022-10-24T05:39:42;14.30;99.90
51579;DHT22;47998;53.242;6.386;2022-10-24T05:42:08;14.30;99.90
51579;DHT22;47998;53.242;6.386;2022-10-24T05:44:35;14.40;99.90
51579;DHT22;47998;53.242;6.386;2022-10-24T05:47:01;14.40;99.90
51579;DHT22;47998;53.242;6.386;2022-10-24T05:49:27;14.40;99.90
51579;DHT22;47998;53.242;6.386;2022-10-24T05:51:52;14.40;99.90
51579;DHT22;47998;53.242;6.386;2022-10-24T05:54:18;14.50;99.90
51579;DHT22;47998;53.242;6.386;2022-10-24T05:56:44;14.50;99.90
51579;DHT22;47998;53.242;6.386;2022-10-24T05:59:09;14.50;99.90
51579;DHT22;47998;53.242;6.386;2022-10-24T06:01:35;14.50;99.90
51579;DHT22;47998;53.242;6.386;2022-10-24T06:04:01;14.50;99.90
51579;DHT22;47998;53.242;6.386;2022-10-24T06:06:27;14.50;99.90
51579;DHT22;47998;53.242;6.386;2022-10-24T06:08:53;14.50;99.90
51579;DHT22;47998;53.242;6.386;2022-10-24T06:11:19;14.50;99.90
51579;DHT22;47998;53.242;6.386;2022-10-24T06:13:44;14.50;99.90
51579;DHT22;47998;53.242;6.386;2022-10-24T06:16:11;14.50;99.90
51579;DHT22;47998;53.242;6.386;2022-10-24T06:18:38;14.60;99.90
51579;DHT22;47998;53.242;6.386;2022-10-24T06:21:05;14.50;99.90
51579;DHT22;47998;53.242;6.386;2022-10-24T06:23:31;14.40;99.90
51579;DHT22;47998;53.242;6.386;2022-10-24T06:25:57;14.30;99.90
51579;DHT22;47998;53.242;6.386;2022-10-24T06:28:23;14.20;99.90
51579;DHT22;47998;53.242;6.386;2022-10-24T06:30:50;14.20;99.90
51579;DHT22;47998;53.242;6.386;2022-10-24T06:33:16;14.20;99.90
51579;DHT22;47998;53.242;6.386;2022-10-24T06:35:42;14.10;99.90
51579;DHT22;47998;53.242;6.386;2022-10-24T06:38:08;14.20;99.90
51579;DHT22;47998;53.242;6.386;2022-10-24T06:40:35;14.20;99.90
51579;DHT22;47998;53.242;6.386;2022-10-24T06:43:02;14.20;99.90
51579;DHT22;47998;53.242;6.386;2022-10-24T06:45:27;14.20;99.90
51579;DHT22;47998;53.242;6.386;2022-10-24T06:47:53;14.40;99.90
51579;DHT22;47998;53.242;6.386;2022-10-24T06:50:19;14.40;99.90
51579;DHT22;47998;53.242;6.386;2022-10-24T06:52:44;14.50;99.90
51579;DHT22;47998;53.242;6.386;2022-10-24T06:55:10;14.60;99.90
51579;DHT22;47998;53.242;6.386;2022-10-24T06:57:36;14.70;99.90
51579;DHT22;47998;53.242;6.386;2022-10-24T07:00:03;14.70;99.90
51579;DHT22;47998;53.242;6.386;2022-10-24T07:02:29;14.80;1.00
51579;DHT22;47998;53.242;6.386;2022-10-24T07:04:56;14.80;1.00
51579;DHT22;47998;53.242;6.386;2022-10-24T07:07:22;14.80;46.40
51579;DHT22;47998;53.242;6.386;2022-10-24T07:09:56;14.80;1.00
51579;DHT22;47998;53.242;6.386;2022-10-24T07:12:22;14.80;1.00
51579;DHT22;47998;53.242;6.386;2022-10-24T07:14:48;14.80;1.00
51579;DHT22;47998;53.242;6.386;2022-10-24T07:17:15;14.80;1.00
51579;DHT22;47998;53.242;6.386;2022-10-24T07:19:41;14.80;1.00
51579;DHT22;47998;53.242;6.386;2022-10-24T07:22:06;14.90;1.00
51579;DHT22;47998;53.242;6.386;2022-10-24T07:24:33;15.00;1.00
51579;DHT22;47998;53.242;6.386;2022-10-24T07:26:59;15.00;1.00
51579;DHT22;47998;53.242;6.386;2022-10-24T07:29:24;15.10;99.90
51579;DHT22;47998;53.242;6.386;2022-10-24T07:31:50;15.20;1.00
51579;DHT22;47998;53.242;6.386;2022-10-24T07:34:16;15.20;1.00
51579;DHT22;47998;53.242;6.386;2022-10-24T07:36:42;15.30;99.90
51579;DHT22;47998;53.242;6.386;2022-10-24T07:39:08;15.40;99.90
51579;DHT22;47998;53.242;6.386;2022-10-24T07:41:37;15.50;1.00
51579;DHT22;47998;53.242;6.386;2022-10-24T07:44:05;15.50;14.40
51579;DHT22;47998;53.242;6.386;2022-10-24T07:46:30;15.60;1.00
51579;DHT22;47998;53.242;6.386;2022-10-24T07:48:56;15.60;99.90
51579;DHT22;47998;53.242;6.386;2022-10-24T07:51:22;15.70;1.00
51579;DHT22;47998;53.242;6.386;2022-10-24T07:53:48;15.70;99.90
51579;DHT22;47998;53.242;6.386;2022-10-24T07:56:15;15.70;99.90
51579;DHT22;47998;53.242;6.386;2022-10-24T07:58:43;15.70;99.90
51579;DHT22;47998;53.242;6.386;2022-10-24T08:01:12;15.70;99.90
51579;DHT22;47998;53.242;6.386;2022-10-24T08:03:38;15.70;99.90
51579;DHT22;47998;53.242;6.386;2022-10-24T08:06:06;15.80;1.00
51579;DHT22;47998;53.242;6.386;2022-10-24T08:08:33;15.90;1.00
51579;DHT22;47998;53.242;6.386;2022-10-24T08:10:59;15.90;99.90
51579;DHT22;47998;53.242;6.386;2022-10-24T08:13:25;15.90;99.90
51579;DHT22;47998;53.242;6.386;2022-10-24T08:15:50;16.00;99.90
51579;DHT22;47998;53.242;6.386;2022-10-24T08:18:16;16.00;99.90
51579;DHT22;47998;53.242;6.386;2022-10-24T08:20:42;16.00;99.90
51579;DHT22;47998;53.242;6.386;2022-10-24T08:23:08;15.90;99.90
51579;DHT22;47998;53.242;6.386;2022-10-24T08:25:33;15.90;99.90
51579;DHT22;47998;53.242;6.386;2022-10-24T08:27:59;15.80;1.00
51579;DHT22;47998;53.242;6.386;2022-10-24T08:30:25;15.60;99.90
51579;DHT22;47998;53.242;6.386;2022-10-24T08:32:50;15.50;99.90
51579;DHT22;47998;53.242;6.386;2022-10-24T08:35:18;15.60;99.90
51579;DHT22;47998;53.242;6.386;2022-10-24T08:37:44;15.60;99.90
51579;DHT22;47998;53.242;6.386;2022-10-24T08:40:18;15.60;99.90
51579;DHT22;47998;53.242;6.386;2022-10-24T08:42:45;15.60;99.90
51579;DHT22;47998;53.242;6.386;2022-10-24T08:45:57;15.60;1.00
51579;DHT22;47998;53.242;6.386;2022-10-24T08:48:14;15.80;1.00
51579;DHT22;47998;53.242;6.386;2022-10-24T08:50:48;15.90;99.90
51579;DHT22;47998;53.242;6.386;2022-10-24T08:53:17;16.00;1.00
51579;DHT22;47998;53.242;6.386;2022-10-24T08:55:51;15.90;1.00
51579;DHT22;47998;53.242;6.386;2022-10-24T09:00:54;15.90;99.90
51579;DHT22;47998;53.242;6.386;2022-10-24T09:03:43;16.00;99.90
51579;DHT22;47998;53.242;6.386;2022-10-24T09:06:16;16.00;99.90
51579;DHT22;47998;53.242;6.386;2022-10-24T09:14:25;16.30;99.90
51579;DHT22;47998;53.242;6.386;2022-10-24T09:16:55;16.90;99.90
51579;DHT22;47998;53.242;6.386;2022-10-24T09:19:25;17.30;1.00
51579;DHT22;47998;53.242;6.386;2022-10-24T09:21:52;17.50;1.00
51579;DHT22;47998;53.242;6.386;2022-10-24T09:27:06;17.60;1.00
51579;DHT22;47998;53.242;6.386;2022-10-24T09:29:34;17.70;1.00
51579;DHT22;47998;53.242;6.386;2022-10-24T09:32:01;17.50;1.00
51579;DHT22;47998;53.242;6.386;2022-10-24T09:34:27;17.50;1.00
51579;DHT22;47998;53.242;6.386;2022-10-24T09:36:52;17.80;99.90
51579;DHT22;47998;53.242;6.386;2022-10-24T09:39:30;18.10;56.10
51579;DHT22;47998;53.242;6.386;2022-10-24T09:41:58;18.40;99.90
51579;DHT22;47998;53.242;6.386;2022-10-24T09:44:29;18.40;99.90
51579;DHT22;47998;53.242;6.386;2022-10-24T09:46:55;18.50;74.90
51579;DHT22;47998;53.242;6.386;2022-10-24T09:49:22;17.90;99.90
51579;DHT22;47998;53.242;6.386;2022-10-24T09:54:30;17.30;99.90
51579;DHT22;47998;53.242;6.386;2022-10-24T09:57:12;17.10;1.00
51579;DHT22;47998;53.242;6.386;2022-10-24T10:00:04;17.00;99.90
51579;DHT22;47998;53.242;6.386;2022-10-24T10:02:31;16.80;99.90
51579;DHT22;47998;53.242;6.386;2022-10-24T10:07:32;16.50;99.90
51579;DHT22;47998;53.242;6.386;2022-10-24T10:10:42;16.40;99.90
51579;DHT22;47998;53.242;6.386;2022-10-24T10:13:20;16.40;1.00
51579;DHT22;47998;53.242;6.386;2022-10-24T10:15:54;16.30;1.00
51579;DHT22;47998;53.242;6.386;2022-10-24T10:18:25;16.20;99.90
51579;DHT22;47998;53.242;6.386;2022-10-24T10:21:02;16.20;99.90
51579;DHT22;47998;53.242;6.386;2022-10-24T10:26:26;16.40;99.90
51579;DHT22;47998;53.242;6.386;2022-10-24T10:31:44;16.50;99.90
51579;DHT22;47998;53.242;6.386;2022-10-24T10:49:29;16.10;1.00
51579;DHT22;47998;53.242;6.386;2022-10-24T10:52:29;16.70;99.90
51579;DHT22;47998;53.242;6.386;2022-10-24T10:57:37;17.40;1.00
51579;DHT22;47998;53.242;6.386;2022-10-24T11:00:14;17.40;1.00
51579;DHT22;47998;53.242;6.386;2022-10-24T11:11:35;17.60;99.90
51579;DHT22;47998;53.242;6.386;2022-10-24T11:14:24;17.30;1.00
51579;DHT22;47998;53.242;6.386;2022-10-24T11:16:52;17.70;1.00
51579;DHT22;47998;53.242;6.386;2022-10-24T11:19:28;17.20;80.60
51579;DHT22;47998;53.242;6.386;2022-10-24T11:21:56;17.00;1.00
51579;DHT22;47998;53.242;6.386;2022-10-24T11:24:25;16.70;99.90
51579;DHT22;47998;53.242;6.386;2022-10-24T11:27:17;16.40;1.00
51579;DHT22;47998;53.242;6.386;2022-10-24T11:30:07;16.30;99.90
51579;DHT22;47998;53.242;6.386;2022-10-24T11:32:49;16.30;99.90
51579;DHT22;47998;53.242;6.386;2022-10-24T11:35:31;16.20;99.90
51579;DHT22;47998;53.242;6.386;2022-10-24T11:38:19;16.10;99.90
51579;DHT22;47998;53.242;6.386;2022-10-24T11:40:49;15.90;1.00
51579;DHT22;47998;53.242;6.386;2022-10-24T11:43:23;15.80;99.90
51579;DHT22;47998;53.242;6.386;2022-10-24T11:45:59;16.20;99.90
51579;DHT22;47998;53.242;6.386;2022-10-24T11:58:54;16.70;99.90
51579;DHT22;47998;53.242;6.386;2022-10-24T12:05:10;16.50;99.90
51579;DHT22;47998;53.242;6.386;2022-10-24T12:16:07;17.10;99.90
51579;DHT22;47998;53.242;6.386;2022-10-24T12:18:45;17.30;99.90
51579;DHT22;47998;53.242;6.386;2022-10-24T12:21:15;17.00;1.00
51579;DHT22;47998;53.242;6.386;2022-10-24T12:23:51;16.80;1.00
51579;DHT22;47998;53.242;6.386;2022-10-24T12:26:29;16.60;42.20
51579;DHT22;47998;53.242;6.386;2022-10-24T12:29:06;16.60;1.00
51579;DHT22;47998;53.242;6.386;2022-10-24T12:31:43;16.70;5.40
51579;DHT22;47998;53.242;6.386;2022-10-24T12:39:36;16.60;99.90
51579;DHT22;47998;53.242;6.386;2022-10-24T12:42:03;16.50;1.00
51579;DHT22;47998;53.242;6.386;2022-10-24T12:46:59;16.00;99.90
51579;DHT22;47998;53.242;6.386;2022-10-24T12:49:27;16.00;1.00
51579;DHT22;47998;53.242;6.386;2022-10-24T12:51:53;15.90;96.20
51579;DHT22;47998;53.242;6.386;2022-10-24T12:59:34;15.40;99.90
51579;DHT22;47998;53.242;6.386;2022-10-24T13:07:48;15.80;99.90
51579;DHT22;47998;53.242;6.386;2022-10-24T13:26:45;16.70;1.00
51579;DHT22;47998;53.242;6.386;2022-10-24T13:31:49;16.50;99.90
51579;DHT22;47998;53.242;6.386;2022-10-24T13:34:42;16.20;99.90
51579;DHT22;47998;53.242;6.386;2022-10-24T13:39:37;16.20;99.90
51579;DHT22;47998;53.242;6.386;2022-10-24T13:42:21;16.40;1.00
51579;DHT22;47998;53.242;6.386;2022-10-24T13:44:50;16.20;99.90
51579;DHT22;47998;53.242;6.386;2022-10-24T13:47:23;16.00;99.90
51579;DHT22;47998;53.242;6.386;2022-10-24T13:52:46;15.70;1.00
51579;DHT22;47998;53.242;6.386;2022-10-24T13:57:50;15.60;99.90
51579;DHT22;47998;53.242;6.386;2022-10-24T14:00:32;15.60;99.90
51579;DHT22;47998;53.242;6.386;2022-10-24T14:03:03;15.60;99.90
51579;DHT22;47998;53.242;6.386;2022-10-24T14:05:35;15.50;1.00
51579;DHT22;47998;53.242;6.386;2022-10-24T14:08:02;15.60;1.00
51579;DHT22;47998;53.242;6.386;2022-10-24T14:10:30;15.50;1.00
51579;DHT22;47998;53.242;6.386;2022-10-24T14:12:57;15.50;1.00
51579;DHT22;47998;53.242;6.386;2022-10-24T14:15:31;15.50;1.00
51579;DHT22;47998;53.242;6.386;2022-10-24T14:18:10;15.50;99.90
51579;DHT22;47998;53.242;6.386;2022-10-24T14:20:39;15.50;99.90
51579;DHT22;47998;53.242;6.386;2022-10-24T14:23:32;15.50;71.40
51579;DHT22;47998;53.242;6.386;2022-10-24T14:26:17;15.50;99.90
51579;DHT22;47998;53.242;6.386;2022-10-24T14:28:50;15.50;70.00
51579;DHT22;47998;53.242;6.386;2022-10-24T14:31:25;15.60;84.30
51579;DHT22;47998;53.242;6.386;2022-10-24T14:33:55;15.60;99.90
51579;DHT22;47998;53.242;6.386;2022-10-24T14:36:24;15.50;99.90
51579;DHT22;47998;53.242;6.386;2022-10-24T14:38:52;15.40;82.30
51579;DHT22;47998;53.242;6.386;2022-10-24T14:41:27;15.40;39.00
51579;DHT22;47998;53.242;6.386;2022-10-24T14:43:54;15.40;99.90
51579;DHT22;47998;53.242;6.386;2022-10-24T14:48:50;15.00;99.90
51579;DHT22;47998;53.242;6.386;2022-10-24T14:51:18;14.90;99.90
51579;DHT22;47998;53.242;6.386;2022-10-24T14:53:46;14.70;99.90
51579;DHT22;47998;53.242;6.386;2022-10-24T14:56:28;14.60;99.90
51579;DHT22;47998;53.242;6.386;2022-10-24T14:58:56;14.60;99.90
51579;DHT22;47998;53.242;6.386;2022-10-24T15:01:24;14.40;99.90
51579;DHT22;47998;53.242;6.386;2022-10-24T15:06:43;14.30;99.90
51579;DHT22;47998;53.242;6.386;2022-10-24T15:11:56;14.10;99.90
51579;DHT22;47998;53.242;6.386;2022-10-24T15:14:37;14.10;99.90
51579;DHT22;47998;53.242;6.386;2022-10-24T15:19:46;14.20;99.90
51579;DHT22;47998;53.242;6.386;2022-10-24T15:22:36;14.20;99.90
51579;DHT22;47998;53.242;6.386;2022-10-24T15:25:25;14.20;99.90
51579;DHT22;47998;53.242;6.386;2022-10-24T15:27:53;14.20;99.90
51579;DHT22;47998;53.242;6.386;2022-10-24T15:32:53;14.30;99.90
51579;DHT22;47998;53.242;6.386;2022-10-24T15:35:19;14.30;99.90
51579;DHT22;47998;53.242;6.386;2022-10-24T15:37:57;14.20;99.90
51579;DHT22;47998;53.242;6.386;2022-10-24T15:40:27;14.20;99.90
51579;DHT22;47998;53.242;6.386;2022-10-24T15:42:54;14.20;99.90
51579;DHT22;47998;53.242;6.386;2022-10-24T15:45:20;14.20;99.90
51579;DHT22;47998;53.242;6.386;2022-10-24T15:47:46;14.10;99.90
51579;DHT22;47998;53.242;6.386;2022-10-24T15:50:17;14.10;99.90
51579;DHT22;47998;53.242;6.386;2022-10-24T15:52:48;14.10;99.90
51579;DHT22;47998;53.242;6.386;2022-10-24T15:55:23;14.10;99.90
51579;DHT22;47998;53.242;6.386;2022-10-24T15:57:50;14.10;99.90
51579;DHT22;47998;53.242;6.386;2022-10-24T16:00:19;14.00;99.90
51579;DHT22;47998;53.242;6.386;2022-10-24T16:02:46;14.00;99.90
51579;DHT22;47998;53.242;6.386;2022-10-24T16:05:19;14.00;99.90
51579;DHT22;47998;53.242;6.386;2022-10-24T16:07:46;14.00;99.90
51579;DHT22;47998;53.242;6.386;2022-10-24T16:10:14;14.00;99.90
51579;DHT22;47998;53.242;6.386;2022-10-24T16:12:41;14.00;99.90
51579;DHT22;47998;53.242;6.386;2022-10-24T16:15:20;14.00;99.90
51579;DHT22;47998;53.242;6.386;2022-10-24T16:17:47;14.00;99.90
51579;DHT22;47998;53.242;6.386;2022-10-24T16:20:14;14.10;99.90
51579;DHT22;47998;53.242;6.386;2022-10-24T16:22:40;14.10;99.90
51579;DHT22;47998;53.242;6.386;2022-10-24T16:25:11;14.10;99.90
51579;DHT22;47998;53.242;6.386;2022-10-24T16:27:38;14.10;99.90
51579;DHT22;47998;53.242;6.386;2022-10-24T16:30:04;14.10;99.90
51579;DHT22;47998;53.242;6.386;2022-10-24T16:32:30;14.10;99.90
51579;DHT22;47998;53.242;6.386;2022-10-24T16:34:56;14.00;99.90
51579;DHT22;47998;53.242;6.386;2022-10-24T16:37:22;14.00;99.90
51579;DHT22;47998;53.242;6.386;2022-10-24T16:39:48;13.90;99.90
51579;DHT22;47998;53.242;6.386;2022-10-24T16:42:13;13.90;99.90
51579;DHT22;47998;53.242;6.386;2022-10-24T16:44:39;13.90;99.90
51579;DHT22;47998;53.242;6.386;2022-10-24T16:47:05;13.80;99.90
51579;DHT22;47998;53.242;6.386;2022-10-24T16:49:31;13.70;99.90
51579;DHT22;47998;53.242;6.386;2022-10-24T16:51:57;13.70;99.90
51579;DHT22;47998;53.242;6.386;2022-10-24T16:54:23;13.60;99.90
51579;DHT22;47998;53.242;6.386;2022-10-24T16:56:49;13.60;99.90
51579;DHT22;47998;53.242;6.386;2022-10-24T16:59:17;13.40;99.90
51579;DHT22;47998;53.242;6.386;2022-10-24T17:01:43;13.40;99.90
51579;DHT22;47998;53.242;6.386;2022-10-24T17:04:09;13.30;99.90
51579;DHT22;47998;53.242;6.386;2022-10-24T17:06:35;13.30;99.90
51579;DHT22;47998;53.242;6.386;2022-10-24T17:09:00;13.20;99.90
51579;DHT22;47998;53.242;6.386;2022-10-24T17:11:26;13.10;99.90
51579;DHT22;47998;53.242;6.386;2022-10-24T17:13:52;13.20;99.90
51579;DHT22;47998;53.242;6.386;2022-10-24T17:16:18;13.10;99.90
51579;DHT22;47998;53.242;6.386;2022-10-24T17:18:45;13.10;99.90
51579;DHT22;47998;53.242;6.386;2022-10-24T17:21:11;13.00;99.90
51579;DHT22;47998;53.242;6.386;2022-10-24T17:23:38;13.00;99.90
51579;DHT22;47998;53.242;6.386;2022-10-24T17:26:13;12.90;99.90
51579;DHT22;47998;53.242;6.386;2022-10-24T17:28:39;13.00;99.90
51579;DHT22;47998;53.242;6.386;2022-10-24T17:31:05;12.90;99.90
51579;DHT22;47998;53.242;6.386;2022-10-24T17:33:31;12.80;99.90
51579;DHT22;47998;53.242;6.386;2022-10-24T17:35:57;12.80;99.90
51579;DHT22;47998;53.242;6.386;2022-10-24T17:38:53;12.80;99.90
51579;DHT22;47998;53.242;6.386;2022-10-24T17:41:21;12.90;99.90
51579;DHT22;47998;53.242;6.386;2022-10-24T17:43:48;12.80;99.90
51579;DHT22;47998;53.242;6.386;2022-10-24T17:46:14;12.90;99.90
51579;DHT22;47998;53.242;6.386;2022-10-24T17:48:39;12.90;99.90
51579;DHT22;47998;53.242;6.386;2022-10-24T17:51:07;12.90;99.90
51579;DHT22;47998;53.242;6.386;2022-10-24T17:53:35;12.90;99.90
51579;DHT22;47998;53.242;6.386;2022-10-24T17:56:00;12.90;99.90
51579;DHT22;47998;53.242;6.386;2022-10-24T17:58:26;12.80;99.90
51579;DHT22;47998;53.242;6.386;2022-10-24T18:00:52;12.80;99.90
51579;DHT22;47998;53.242;6.386;2022-10-24T18:03:19;12.80;99.90
51579;DHT22;47998;53.242;6.386;2022-10-24T18:05:46;12.80;99.90
51579;DHT22;47998;53.242;6.386;2022-10-24T18:08:13;12.80;99.90
51579;DHT22;47998;53.242;6.386;2022-10-24T18:10:41;12.80;99.90
51579;DHT22;47998;53.242;6.386;2022-10-24T18:13:07;12.80;99.90
51579;DHT22;47998;53.242;6.386;2022-10-24T18:15:36;12.80;99.90
51579;DHT22;47998;53.242;6.386;2022-10-24T18:18:02;12.80;99.90
51579;DHT22;47998;53.242;6.386;2022-10-24T18:20:28;12.80;99.90